»·PEaware :: AAL877 TJSJ-KDFW

AAL877 :: TJSJ-KDFW

FLIGHT INFORMATION

Flight Status: Arrived
Operator:
American Airlines
More flights by this operator :: More flights under this callsign
Pilot: Mitchell L. (19304)
Aircraft: BOEING 737-900
(B739)
More flights by this aircraft type
Origin: TJSJ Luis Munoz Marin Intl
Puerto Rico
Destination: KDFW Dallas-Ft Worth Intl
United States
More flights between these airports :: More routes between these airports
Route: ACONY2 SAPPO R507 GTK Y587 SKIPS SRQ Q100 REDFN Q105 HRV J58 AEX PNUTS BEREE1
File this flight plan on PilotEdge
Remarks:
Altitude:
(Current/Filed)
36,000ft
Speed:
(Current/Filed)
450kts
Departed: 21-Aug-18 06:52 AM
Arrived: 21-Aug-18 11:16 AM
Distance/Time
Traveled:
1879nm/4:24
Distance/Time
To Go:
Arrived

Flight Plot

Page will automatically refresh every two minutes.

Flight plan parsing failed; only flown route is shown


Map Options




Map Legend


Flown Route
Filed Route
Departure Airport
Arrival Airport
Navaid (VOR, NDB)
Fix

Horizontal Profiles

Position Reports

Time Latitude Longitude Heading Altitude Ground
Speed
21-Aug-18 06:39 18.438066 -66.002395 10 14ft 0kts
21-Aug-18 06:40 18.438064 -66.002395 10 14ft 0kts
21-Aug-18 06:41 18.437575 -66.002674 72 14ft 2kts
21-Aug-18 06:42 18.437564 -66.003006 90 14ft 0kts
21-Aug-18 06:43 18.437564 -66.003005 90 14ft 0kts
21-Aug-18 06:44 18.437563 -66.002809 90 14ft 13kts
21-Aug-18 06:45 18.439125 -66.000757 335 14ft 3kts
21-Aug-18 06:46 18.441380 -66.001791 337 14ft 7kts
21-Aug-18 06:47 18.440595 -66.007255 246 14ft 23kts
21-Aug-18 06:48 18.437645 -66.014634 245 14ft 14kts
21-Aug-18 06:49 18.437632 -66.015365 317 14ft 6kts
21-Aug-18 06:50 18.438701 -66.015102 69 14ft 0kts
21-Aug-18 06:51 18.438701 -66.015102 69 14ft 0kts
21-Aug-18 06:52 18.438700 -66.015103 69 14ft 0kts
21-Aug-18 06:53 18.447169 -65.994205 67 42ft 181kts
21-Aug-18 06:54 18.475289 -65.960706 8 1876ft 210kts
21-Aug-18 06:55 18.527990 -65.993821 311 3858ft 252kts
21-Aug-18 06:56 18.585600 -66.063257 311 6690ft 284kts
21-Aug-18 06:57 18.627914 -66.114389 311 8804ft 294kts
21-Aug-18 06:58 18.682920 -66.180917 311 10984ft 313kts
21-Aug-18 06:59 18.753501 -66.266397 312 13250ft 341kts
21-Aug-18 07:00 18.805862 -66.329884 312 15147ft 349kts
21-Aug-18 07:01 18.870084 -66.407836 312 17030ft 353kts
21-Aug-18 07:02 18.934396 -66.485554 315 19189ft 358kts
21-Aug-18 07:03 19.006169 -66.558584 317 21413ft 362kts
21-Aug-18 07:04 19.079190 -66.632757 313 23284ft 371kts
21-Aug-18 07:05 19.146287 -66.717694 309 24814ft 384kts
21-Aug-18 07:06 19.214783 -66.805765 310 26324ft 394kts
21-Aug-18 07:07 19.285127 -66.896335 310 27745ft 402kts
21-Aug-18 07:08 19.356499 -66.988368 310 29056ft 409kts
21-Aug-18 07:09 19.429060 -67.082071 310 30264ft 416kts
21-Aug-18 07:10 19.502942 -67.177611 310 31301ft 424kts
21-Aug-18 07:11 19.578110 -67.274974 310 32307ft 431kts
21-Aug-18 07:12 19.654107 -67.373573 310 33302ft 435kts
21-Aug-18 07:13 19.730705 -67.473118 310 34288ft 437kts
21-Aug-18 07:14 19.807544 -67.573134 310 35267ft 437kts
21-Aug-18 07:15 19.883892 -67.672690 310 36101ft 437kts
21-Aug-18 07:16 19.961199 -67.773676 310 36133ft 447kts
21-Aug-18 07:17 20.040247 -67.877116 310 36130ft 455kts
21-Aug-18 07:18 20.120013 -67.981690 310 36131ft 456kts
21-Aug-18 07:19 20.199687 -68.086324 310 36075ft 457kts
21-Aug-18 07:20 20.279268 -68.191009 309 36050ft 456kts
21-Aug-18 07:21 20.358710 -68.295684 309 36047ft 455kts
21-Aug-18 07:22 20.436564 -68.401635 299 36033ft 456kts
21-Aug-18 07:23 20.485459 -68.526580 292 36047ft 457kts
21-Aug-18 07:24 20.531318 -68.650052 292 36047ft 457kts
21-Aug-18 07:25 20.578051 -68.776206 292 36049ft 457kts
21-Aug-18 07:26 20.624499 -68.901605 292 36048ft 456kts
21-Aug-18 07:27 20.671105 -69.027319 292 36047ft 456kts
21-Aug-18 07:28 20.717821 -69.153160 292 36047ft 456kts
21-Aug-18 07:29 20.764548 -69.278832 292 36093ft 454kts
21-Aug-18 07:30 20.810545 -69.404048 291 36127ft 454kts
21-Aug-18 07:31 20.856331 -69.529335 291 36126ft 454kts
21-Aug-18 07:32 20.902169 -69.654745 291 36126ft 454kts
21-Aug-18 07:33 20.948177 -69.780636 291 36129ft 454kts
21-Aug-18 07:34 20.993684 -69.906197 291 36129ft 454kts
21-Aug-18 07:35 21.039249 -70.032051 291 36128ft 454kts
21-Aug-18 07:36 21.084705 -70.157562 291 36127ft 454kts
21-Aug-18 07:37 21.130060 -70.281726 291 36129ft 454kts
21-Aug-18 07:38 21.176304 -70.407559 291 36128ft 454kts
21-Aug-18 07:39 21.222469 -70.533211 291 36128ft 454kts
21-Aug-18 07:40 21.268488 -70.658937 291 36129ft 455kts
21-Aug-18 07:41 21.314420 -70.785153 291 36077ft 454kts
21-Aug-18 07:42 21.360428 -70.911698 291 36075ft 455kts
21-Aug-18 07:43 21.406323 -71.037890 291 36075ft 455kts
21-Aug-18 07:44 21.457923 -71.161413 302 36103ft 455kts
21-Aug-18 07:45 21.527512 -71.275079 302 36072ft 456kts
21-Aug-18 07:46 21.596742 -71.388719 302 36073ft 457kts
21-Aug-18 07:47 21.665928 -71.502896 302 36073ft 456kts
21-Aug-18 07:48 21.735156 -71.617251 302 36073ft 456kts
21-Aug-18 07:49 21.804510 -71.731781 302 36076ft 458kts
21-Aug-18 07:50 21.873952 -71.846335 302 36076ft 459kts
21-Aug-18 07:51 21.943482 -71.960918 302 36075ft 458kts
21-Aug-18 07:52 22.013349 -72.075938 302 36074ft 458kts
21-Aug-18 07:53 22.082879 -72.190283 302 36074ft 458kts
21-Aug-18 07:54 22.152764 -72.305099 302 36076ft 460kts
21-Aug-18 07:55 22.223046 -72.420451 302 36074ft 459kts
21-Aug-18 07:56 22.293271 -72.535610 303 36074ft 462kts
21-Aug-18 07:57 22.363681 -72.650946 302 36074ft 461kts
21-Aug-18 07:58 22.434215 -72.766401 303 36075ft 461kts
21-Aug-18 07:59 22.504872 -72.881950 303 36075ft 462kts
21-Aug-18 08:00 22.569566 -73.001269 298 36075ft 461kts
21-Aug-18 08:01 22.631815 -73.122198 298 36075ft 461kts
21-Aug-18 08:02 22.694497 -73.243823 299 36075ft 463kts
21-Aug-18 08:03 22.757165 -73.365245 299 36074ft 462kts
21-Aug-18 08:04 22.818905 -73.484714 299 36074ft 463kts
21-Aug-18 08:05 22.882886 -73.608353 299 36074ft 463kts
21-Aug-18 08:06 22.945592 -73.729385 299 36075ft 463kts
21-Aug-18 08:07 23.008721 -73.851087 299 36075ft 463kts
21-Aug-18 08:08 23.071839 -73.972592 299 36074ft 463kts
21-Aug-18 08:09 23.134855 -74.093750 299 36075ft 463kts
21-Aug-18 08:10 23.198069 -74.215148 299 36075ft 463kts
21-Aug-18 08:11 23.261482 -74.336705 299 36073ft 463kts
21-Aug-18 08:12 23.324781 -74.458677 299 36074ft 463kts
21-Aug-18 08:13 23.387409 -74.580827 299 36077ft 463kts
21-Aug-18 08:14 23.449885 -74.703089 299 36075ft 463kts
21-Aug-18 08:15 23.511921 -74.824440 299 36175ft 462kts
21-Aug-18 08:16 23.574390 -74.946474 299 36173ft 462kts
21-Aug-18 08:17 23.636731 -75.068094 299 36177ft 463kts
21-Aug-18 08:18 23.699455 -75.190292 299 36175ft 462kts
21-Aug-18 08:19 23.762185 -75.312332 299 36175ft 463kts
21-Aug-18 08:20 23.825202 -75.434763 300 36174ft 463kts
21-Aug-18 08:21 23.888172 -75.556920 300 36171ft 463kts
21-Aug-18 08:22 23.951283 -75.679194 299 36173ft 463kts
21-Aug-18 08:23 24.014489 -75.801501 300 36174ft 464kts
21-Aug-18 08:24 24.078152 -75.924500 300 36172ft 464kts
21-Aug-18 08:25 24.141757 -76.047246 300 36174ft 465kts
21-Aug-18 08:26 24.205531 -76.170142 300 36174ft 465kts
21-Aug-18 08:27 24.269564 -76.292446 303 36176ft 465kts
21-Aug-18 08:28 24.340712 -76.411311 304 36176ft 470kts
21-Aug-18 08:29 24.412289 -76.530666 304 36175ft 469kts
21-Aug-18 08:30 24.483894 -76.650293 304 36175ft 470kts
21-Aug-18 08:31 24.555352 -76.769778 304 36172ft 470kts
21-Aug-18 08:32 24.626935 -76.889446 304 36172ft 471kts
21-Aug-18 08:33 24.697957 -77.010322 301 36177ft 471kts
21-Aug-18 08:34 24.762184 -77.135576 301 36171ft 472kts
21-Aug-18 08:35 24.826618 -77.261682 301 36171ft 474kts
21-Aug-18 08:36 24.891396 -77.388223 301 36171ft 475kts
21-Aug-18 08:37 24.956450 -77.515186 301 36173ft 476kts
21-Aug-18 08:38 25.021308 -77.641596 301 36174ft 476kts
21-Aug-18 08:39 25.086242 -77.767945 301 36169ft 476kts
21-Aug-18 08:40 25.151603 -77.894954 301 36168ft 477kts
21-Aug-18 08:41 25.217104 -78.022039 301 36174ft 477kts
21-Aug-18 08:42 25.282844 -78.149447 301 36173ft 480kts
21-Aug-18 08:43 25.326601 -78.287925 286 36177ft 485kts
21-Aug-18 08:44 25.359438 -78.432563 286 36180ft 485kts
21-Aug-18 08:45 25.392529 -78.576762 286 36177ft 485kts
21-Aug-18 08:46 25.425371 -78.719037 286 36136ft 485kts
21-Aug-18 08:47 25.458636 -78.862552 286 36138ft 486kts
21-Aug-18 08:48 25.492240 -79.006992 286 36139ft 486kts
21-Aug-18 08:49 25.526023 -79.151549 286 36164ft 486kts
21-Aug-18 08:50 25.567168 -79.292401 302 36202ft 480kts
21-Aug-18 08:51 25.636656 -79.417066 304 36176ft 480kts
21-Aug-18 08:52 25.706332 -79.542567 304 36164ft 480kts
21-Aug-18 08:53 25.775904 -79.668089 304 36163ft 481kts
21-Aug-18 08:54 25.845931 -79.794261 304 36164ft 482kts
21-Aug-18 08:55 25.916149 -79.920616 304 36163ft 482kts
21-Aug-18 08:56 25.986379 -80.046852 304 36163ft 482kts
21-Aug-18 08:57 26.055956 -80.171672 304 36170ft 482kts
21-Aug-18 08:58 26.126023 -80.297237 304 36189ft 483kts
21-Aug-18 08:59 26.197018 -80.424289 304 36173ft 483kts
21-Aug-18 09:00 26.267618 -80.550468 305 36176ft 484kts
21-Aug-18 09:01 26.338751 -80.677358 305 36170ft 485kts
21-Aug-18 09:02 26.410075 -80.804397 304 36182ft 486kts
21-Aug-18 09:03 26.481607 -80.931672 305 36182ft 486kts
21-Aug-18 09:04 26.553341 -81.059117 305 36183ft 486kts
21-Aug-18 09:05 26.625100 -81.186420 305 36183ft 486kts
21-Aug-18 09:06 26.697181 -81.314093 305 36185ft 486kts
21-Aug-18 09:07 26.757324 -81.420507 305 36182ft 486kts
21-Aug-18 09:08 26.842007 -81.570115 305 36176ft 488kts
21-Aug-18 09:09 26.914572 -81.698085 305 36196ft 489kts
21-Aug-18 09:10 26.987450 -81.826381 305 36201ft 491kts
21-Aug-18 09:11 27.048643 -81.934024 305 36202ft 490kts
21-Aug-18 09:12 27.121452 -82.061916 305 36200ft 490kts
21-Aug-18 09:13 27.207100 -82.212163 305 36194ft 490kts
21-Aug-18 09:14 27.268338 -82.319428 305 36176ft 491kts
21-Aug-18 09:15 27.341862 -82.448070 305 36163ft 490kts
21-Aug-18 09:16 27.414624 -82.603913 284 36193ft 496kts
21-Aug-18 09:17 27.437927 -82.730468 282 36162ft 495kts
21-Aug-18 09:18 27.464031 -82.883179 281 36163ft 496kts
21-Aug-18 09:19 27.489887 -83.035366 281 36164ft 497kts
21-Aug-18 09:20 27.515919 -83.187896 282 36143ft 497kts
21-Aug-18 09:21 27.542058 -83.340114 282 36131ft 498kts
21-Aug-18 09:22 27.568440 -83.492838 282 36187ft 497kts
21-Aug-18 09:23 27.595007 -83.645711 282 36186ft 497kts
21-Aug-18 09:24 27.621701 -83.798141 281 36181ft 498kts
21-Aug-18 09:25 27.648603 -83.951040 282 36182ft 498kts
21-Aug-18 09:26 27.675672 -84.103953 282 36184ft 498kts
21-Aug-18 09:27 27.702930 -84.257102 282 36184ft 498kts
21-Aug-18 09:28 27.730320 -84.410047 282 36187ft 498kts
21-Aug-18 09:29 27.757754 -84.562394 282 36187ft 494kts
21-Aug-18 09:30 27.785239 -84.714149 282 36182ft 495kts
21-Aug-18 09:31 27.812910 -84.865928 282 36182ft 495kts
21-Aug-18 09:32 27.840699 -85.017719 282 36133ft 495kts
21-Aug-18 09:33 27.868675 -85.169798 282 36138ft 495kts
21-Aug-18 09:34 27.902952 -85.319522 289 36130ft 495kts
21-Aug-18 09:35 27.946861 -85.465898 290 36140ft 494kts
21-Aug-18 09:36 27.990512 -85.613387 289 36142ft 495kts
21-Aug-18 09:37 28.033901 -85.760326 289 36136ft 494kts
21-Aug-18 09:38 28.077375 -85.907396 289 36137ft 494kts
21-Aug-18 09:39 28.120917 -86.054349 289 36139ft 494kts
21-Aug-18 09:40 28.164638 -86.201421 290 36147ft 494kts
21-Aug-18 09:41 28.208570 -86.348765 290 36149ft 493kts
21-Aug-18 09:42 28.252442 -86.495443 290 36149ft 493kts
21-Aug-18 09:43 28.296103 -86.640978 290 36152ft 489kts
21-Aug-18 09:44 28.339211 -86.786614 289 36148ft 487kts
21-Aug-18 09:45 28.380946 -86.932070 288 36146ft 487kts
21-Aug-18 09:46 28.422525 -87.078094 288 36146ft 486kts
21-Aug-18 09:47 28.464147 -87.224183 288 36144ft 487kts
21-Aug-18 09:48 28.505888 -87.370276 289 36151ft 486kts
21-Aug-18 09:49 28.547824 -87.516572 289 36166ft 487kts
21-Aug-18 09:50 28.589676 -87.662097 288 36166ft 486kts
21-Aug-18 09:51 28.631892 -87.808309 289 36164ft 487kts
21-Aug-18 09:52 28.674231 -87.954543 289 36164ft 487kts
21-Aug-18 09:53 28.716524 -88.100562 288 36164ft 487kts
21-Aug-18 09:54 28.757413 -88.247276 288 36170ft 485kts
21-Aug-18 09:55 28.797815 -88.392701 288 36167ft 483kts
21-Aug-18 09:56 28.838212 -88.538028 288 36164ft 481kts
21-Aug-18 09:57 28.879528 -88.680563 297 36147ft 480kts
21-Aug-18 09:58 28.959611 -88.801641 311 36155ft 480kts
21-Aug-18 09:59 29.045529 -88.917375 311 36156ft 480kts
21-Aug-18 10:00 29.131082 -89.032608 311 36155ft 480kts
21-Aug-18 10:01 29.216886 -89.148127 311 36155ft 480kts
21-Aug-18 10:02 29.302591 -89.263358 310 36143ft 471kts
21-Aug-18 10:03 29.387799 -89.377862 310 36144ft 474kts
21-Aug-18 10:04 29.472638 -89.491763 310 36149ft 475kts
21-Aug-18 10:05 29.558165 -89.606487 311 36150ft 474kts
21-Aug-18 10:06 29.643512 -89.720832 310 36120ft 474kts
21-Aug-18 10:07 29.728375 -89.835286 310 36118ft 475kts
21-Aug-18 10:08 29.812930 -89.950745 310 36123ft 473kts
21-Aug-18 10:09 29.892045 -90.070681 302 36126ft 473kts
21-Aug-18 10:10 29.962719 -90.196588 302 36120ft 472kts
21-Aug-18 10:11 30.034315 -90.323230 303 36119ft 473kts
21-Aug-18 10:12 30.105703 -90.449172 303 36119ft 471kts
21-Aug-18 10:13 30.177355 -90.575363 303 36113ft 472kts
21-Aug-18 10:14 30.248642 -90.700711 302 36119ft 471kts
21-Aug-18 10:15 30.320984 -90.827697 302 36108ft 472kts
21-Aug-18 10:16 30.393038 -90.954036 302 36109ft 469kts
21-Aug-18 10:17 30.464374 -91.078916 302 36114ft 466kts
21-Aug-18 10:18 30.535609 -91.203467 303 36118ft 465kts
21-Aug-18 10:19 30.607089 -91.328252 303 36118ft 465kts
21-Aug-18 10:20 30.678041 -91.452117 302 36116ft 464kts
21-Aug-18 10:21 30.747157 -91.576473 302 36116ft 464kts
21-Aug-18 10:22 30.815412 -91.700167 301 36122ft 460kts
21-Aug-18 10:23 30.884251 -91.825181 301 36120ft 459kts
21-Aug-18 10:24 30.952520 -91.949090 301 36104ft 460kts
21-Aug-18 10:25 31.019391 -92.070262 301 36096ft 460kts
21-Aug-18 10:26 31.088512 -92.195370 301 36089ft 460kts
21-Aug-18 10:27 31.153056 -92.312013 301 36090ft 459kts
21-Aug-18 10:28 31.221215 -92.435032 302 36063ft 458kts
21-Aug-18 10:29 31.280808 -92.562789 290 36065ft 450kts
21-Aug-18 10:30 31.325559 -92.697777 290 36067ft 451kts
21-Aug-18 10:31 31.371075 -92.833340 291 36064ft 451kts
21-Aug-18 10:32 31.416625 -92.968790 291 36058ft 451kts
21-Aug-18 10:33 31.462235 -93.104656 291 36042ft 451kts
21-Aug-18 10:34 31.507484 -93.239811 291 36040ft 451kts
21-Aug-18 10:35 31.552508 -93.374786 291 36046ft 451kts
21-Aug-18 10:36 31.597692 -93.510764 291 36043ft 450kts
21-Aug-18 10:37 31.635498 -93.647189 286 36037ft 450kts
21-Aug-18 10:38 31.669537 -93.784395 286 36093ft 452kts
21-Aug-18 10:39 31.702532 -93.917077 286 36091ft 451kts
21-Aug-18 10:40 31.736406 -94.053674 286 36091ft 450kts
21-Aug-18 10:41 31.771281 -94.194720 287 36090ft 454kts
21-Aug-18 10:42 31.806429 -94.337751 287 36095ft 459kts
21-Aug-18 10:43 31.840930 -94.478535 287 36102ft 459kts
21-Aug-18 10:44 31.875860 -94.621874 287 36097ft 459kts
21-Aug-18 10:45 31.909287 -94.759766 286 36097ft 460kts
21-Aug-18 10:46 31.944057 -94.904005 287 36099ft 464kts
21-Aug-18 10:47 31.978574 -95.047885 287 36098ft 464kts
21-Aug-18 10:48 32.011822 -95.187118 287 36107ft 465kts
21-Aug-18 10:49 32.046220 -95.331984 287 36108ft 465kts
21-Aug-18 10:50 32.080497 -95.477064 287 36088ft 468kts
21-Aug-18 10:51 32.113137 -95.615966 287 36084ft 468kts
21-Aug-18 10:52 32.143528 -95.746010 287 34641ft 469kts
21-Aug-18 10:53 32.175170 -95.882260 287 32777ft 456kts
21-Aug-18 10:54 32.207914 -96.023792 287 30432ft 456kts
21-Aug-18 10:55 32.215525 -96.056795 287 29854ft 451kts
21-Aug-18 10:56 32.215677 -96.057454 287 29843ft 450kts
21-Aug-18 10:57 32.235323 -96.142807 286 28322ft 440kts
21-Aug-18 10:58 32.266357 -96.278176 286 25420ft 414kts
21-Aug-18 10:59 32.330666 -96.384977 316 22491ft 406kts
21-Aug-18 11:00 32.409940 -96.476693 316 19523ft 399kts
21-Aug-18 11:01 32.487127 -96.565912 316 16926ft 381kts
21-Aug-18 11:02 32.558257 -96.647624 316 14799ft 320kts
21-Aug-18 11:03 32.618866 -96.716315 315 12811ft 300kts
21-Aug-18 11:04 32.668276 -96.788699 281 10857ft 287kts
21-Aug-18 11:05 32.633255 -96.864996 204 8985ft 300kts
21-Aug-18 11:06 32.550379 -96.868275 178 7534ft 304kts
21-Aug-18 11:07 32.479483 -96.904188 244 6081ft 289kts
21-Aug-18 11:08 32.493139 -96.986526 324 4864ft 269kts
21-Aug-18 11:09 32.560438 -97.004880 352 4222ft 249kts
21-Aug-18 11:10 32.626615 -97.013867 352 3601ft 238kts
21-Aug-18 11:11 32.690076 -97.022493 352 3010ft 232kts
21-Aug-18 11:12 32.750172 -97.030670 352 2731ft 196kts
21-Aug-18 11:13 32.793446 -97.031937 0 2211ft 142kts
21-Aug-18 11:14 32.828893 -97.031529 2 1977ft 160kts
21-Aug-18 11:15 32.865230 -97.030190 0 994ft 138kts
21-Aug-18 11:16 32.896990 -97.029979 0 614ft 61kts
21-Aug-18 11:17 32.904399 -97.031840 323 614ft 13kts
21-Aug-18 11:18 32.905418 -97.034946 273 614ft 4kts
21-Aug-18 11:19 32.905424 -97.035074 273 614ft 0kts
21-Aug-18 11:20 32.905424 -97.035074 273 614ft 0kts
21-Aug-18 11:21 32.905424 -97.035074 273 614ft 0kts
21-Aug-18 11:22 32.905424 -97.035074 273 614ft 0kts

Navigation Log

Ident Type
Flight plan parsing failed, navigation log unavailable